Time;durP1;ratioP1;P1;durP2;ratioP2;P2;SDS_P1;SDS_P2;PMS_P1;PMS_P2;Temp;Humidity;BMP_temperature;BMP_pressure;BME280_temperature;BME280_humidity;BME280_pressure;Samples;Min_cycle;Max_cycle;Signal;HPM_P1;HPM_P2
2022/03/03 00:00:47;;;;;;;15.00;11.80;;;-2.10;99.90;;;;;;5086457;28;20183;-75
2022/03/03 00:03:12;;;;;;;16.17;11.67;;;-2.10;99.90;;;;;;5086404;28;20215;-76
2022/03/03 00:05:38;;;;;;;14.53;11.43;;;-2.20;99.90;;;;;;5085309;28;20605;-76
2022/03/03 00:08:04;;;;;;;13.40;11.50;;;-2.30;99.90;;;;;;5093716;28;20186;-75
2022/03/03 00:10:30;;;;;;;14.83;11.43;;;-2.30;99.90;;;;;;5088428;28;20202;-75
2022/03/03 00:12:55;;;;;;;14.17;11.67;;;-2.30;99.90;;;;;;5083961;28;20199;-76
2022/03/03 00:15:21;;;;;;;14.93;11.30;;;-2.40;99.90;;;;;;5082147;28;20652;-74
2022/03/03 00:17:46;;;;;;;17.13;11.50;;;-2.40;99.90;;;;;;5091627;28;20178;-75
2022/03/03 00:20:12;;;;;;;14.97;10.60;;;-2.40;99.90;;;;;;5078553;28;20183;-75
2022/03/03 00:22:38;;;;;;;12.30;10.00;;;-2.30;99.90;;;;;;5092171;28;20195;-75
2022/03/03 00:25:04;;;;;;;12.37;10.20;;;-2.30;99.90;;;;;;5076784;28;20179;-75
2022/03/03 00:27:29;;;;;;;13.53;11.13;;;-2.30;99.90;;;;;;5090248;28;20235;-75
2022/03/03 00:29:55;;;;;;;14.20;11.47;;;-2.30;99.90;;;;;;5085850;28;20261;-75
2022/03/03 00:32:21;;;;;;;14.83;11.50;;;-2.40;99.90;;;;;;5090653;28;20218;-75
2022/03/03 00:34:47;;;;;;;14.97;12.20;;;-2.40;99.90;;;;;;5085345;28;20645;-75
2022/03/03 00:37:12;;;;;;;15.63;11.10;;;-2.50;99.90;;;;;;5092207;28;20175;-75
2022/03/03 00:39:38;;;;;;;14.97;11.70;;;-2.50;99.90;;;;;;5085046;28;20211;-75
2022/03/03 00:42:04;;;;;;;15.20;11.93;;;-2.60;99.90;;;;;;5089767;28;20209;-76
2022/03/03 00:44:29;;;;;;;14.90;11.47;;;-2.50;99.90;;;;;;5080629;28;20634;-75
2022/03/03 00:46:55;;;;;;;18.80;11.43;;;-2.60;99.90;;;;;;5084410;28;20257;-76
2022/03/03 00:49:20;;;;;;;16.63;11.83;;;-2.50;99.90;;;;;;5089008;28;20195;-75
2022/03/03 00:51:46;;;;;;;12.03;10.20;;;-2.40;99.90;;;;;;5088369;28;20203;-75
2022/03/03 00:54:12;;;;;;;11.53;9.97;;;-2.40;99.90;;;;;;5087379;28;20214;-75
2022/03/03 00:56:37;;;;;;;14.57;10.87;;;-2.40;99.90;;;;;;5085832;28;20202;-75
2022/03/03 00:59:04;;;;;;;11.93;9.80;;;-2.50;99.90;;;;;;5091895;28;20185;-75
2022/03/03 01:01:30;;;;;;;13.40;10.70;;;-2.50;99.90;;;;;;5093046;28;20234;-75
2022/03/03 01:03:56;;;;;;;15.50;11.40;;;-2.50;99.90;;;;;;5082918;28;20256;-75
2022/03/03 01:06:21;;;;;;;16.07;11.53;;;-2.60;99.90;;;;;;5078552;28;20595;-75
2022/03/03 01:08:47;;;;;;;12.20;10.57;;;-2.70;99.90;;;;;;5092715;28;20227;-75
2022/03/03 01:11:12;;;;;;;14.73;11.13;;;-2.70;99.90;;;;;;5085308;28;20202;-74
2022/03/03 01:13:38;;;;;;;15.10;11.00;;;-2.70;99.90;;;;;;5087244;28;20557;-75
2022/03/03 01:16:04;;;;;;;15.07;11.20;;;-2.60;99.90;;;;;;5085246;28;20179;-75
2022/03/03 01:18:30;;;;;;;17.37;12.23;;;-2.70;99.90;;;;;;5089439;28;20179;-75
2022/03/03 01:20:55;;;;;;;14.60;10.60;;;-2.90;99.90;;;;;;5084979;28;20179;-75
2022/03/03 01:23:22;;;;;;;19.13;11.20;;;-3.00;99.90;;;;;;5081185;28;20207;-75
2022/03/03 01:25:48;;;;;;;14.97;10.60;;;-3.00;99.90;;;;;;5090264;28;20235;-75
2022/03/03 01:28:13;;;;;;;14.97;10.77;;;-3.00;99.90;;;;;;5088576;28;20617;-75
2022/03/03 01:30:39;;;;;;;13.00;9.67;;;-3.00;99.90;;;;;;5083731;28;20229;-75
2022/03/03 01:33:06;;;;;;;16.80;10.87;;;-3.00;99.90;;;;;;5080047;28;20754;-75
2022/03/03 01:35:32;;;;;;;14.93;10.37;;;-3.00;99.90;;;;;;5084148;28;20289;-75
2022/03/03 01:37:58;;;;;;;13.93;10.03;;;-3.00;99.90;;;;;;5084959;28;20689;-75
2022/03/03 01:40:25;;;;;;;15.00;11.30;;;-3.00;99.90;;;;;;5081552;28;20596;-75
2022/03/03 01:42:51;;;;;;;14.47;11.03;;;-3.10;99.90;;;;;;5086196;28;20557;-75
2022/03/03 01:45:16;;;;;;;13.33;11.03;;;-3.20;99.90;;;;;;5086289;28;20182;-75
2022/03/03 01:47:42;;;;;;;14.83;11.13;;;-3.20;99.90;;;;;;5080426;28;20179;-75
2022/03/03 01:50:08;;;;;;;14.00;10.83;;;-3.20;99.90;;;;;;5088374;28;20210;-75
2022/03/03 01:52:34;;;;;;;13.97;10.27;;;-3.20;99.90;;;;;;5085053;28;20297;-75
2022/03/03 01:55:00;;;;;;;15.90;10.97;;;-3.10;99.90;;;;;;5087208;28;20541;-75
2022/03/03 01:57:25;;;;;;;16.37;11.00;;;-3.10;99.90;;;;;;5090167;28;20171;-75
2022/03/03 01:59:51;;;;;;;13.63;11.37;;;-3.10;99.90;;;;;;5085538;28;20191;-76
2022/03/03 02:02:17;;;;;;;12.10;10.83;;;-3.10;99.90;;;;;;5084808;28;20199;-75
2022/03/03 02:04:43;;;;;;;14.47;11.10;;;-3.20;99.90;;;;;;5083054;28;20534;-75
2022/03/03 02:07:10;;;;;;;15.50;11.57;;;-3.30;99.90;;;;;;5089382;28;20178;-75
2022/03/03 02:09:36;;;;;;;12.47;10.43;;;-3.40;99.90;;;;;;5084141;28;20187;-75
2022/03/03 02:12:03;;;;;;;17.10;11.60;;;-3.40;99.90;;;;;;5086494;28;20776;-75
2022/03/03 02:14:29;;;;;;;15.53;11.43;;;-3.40;99.90;;;;;;5088247;28;20191;-75
2022/03/03 02:16:54;;;;;;;13.90;10.53;;;-3.50;99.90;;;;;;5084665;28;20183;-75
2022/03/03 02:19:21;;;;;;;16.40;11.50;;;-3.40;99.90;;;;;;5085583;28;20186;-75
2022/03/03 02:21:53;;;;;;;15.43;10.40;;;-3.50;99.90;;;;;;5090645;28;20213;-75
2022/03/03 02:24:20;;;;;;;12.03;9.97;;;-3.50;99.90;;;;;;5086821;28;20182;-75
2022/03/03 02:26:46;;;;;;;12.20;10.17;;;-3.50;99.90;;;;;;5088095;28;20500;-75
2022/03/03 02:29:12;;;;;;;14.00;10.80;;;-3.50;99.90;;;;;;5087306;28;20679;-75
2022/03/03 02:31:39;;;;;;;13.83;11.60;;;-3.40;99.90;;;;;;5085333;28;20221;-75
2022/03/03 02:34:04;;;;;;;16.77;10.93;;;-3.40;99.90;;;;;;5088047;28;20269;-75
2022/03/03 02:36:30;;;;;;;18.10;11.77;;;-3.30;99.90;;;;;;5076633;28;20274;-76
2022/03/03 02:38:59;;;;;;;12.63;11.20;;;-3.40;99.90;;;;;;5084445;28;20220;-75
2022/03/03 02:41:26;;;;;;;15.33;10.53;;;-3.50;99.90;;;;;;5088758;28;20736;-75
2022/03/03 02:43:52;;;;;;;15.13;11.60;;;-3.60;99.90;;;;;;5081167;28;20187;-75
2022/03/03 02:46:18;;;;;;;14.87;11.00;;;-3.70;99.90;;;;;;5084814;28;20190;-76
2022/03/03 02:48:44;;;;;;;13.90;11.57;;;-3.70;99.90;;;;;;5091531;28;20194;-75
2022/03/03 02:51:10;;;;;;;15.43;10.83;;;-3.80;99.90;;;;;;5085048;28;20199;-75
2022/03/03 02:53:36;;;;;;;13.43;11.20;;;-3.80;99.90;;;;;;5083551;28;20217;-75
2022/03/03 02:56:04;;;;;;;16.27;11.40;;;-3.90;99.90;;;;;;5088522;28;20641;-75
2022/03/03 02:58:30;;;;;;;15.30;10.70;;;-3.90;99.90;;;;;;5089688;28;20232;-74
2022/03/03 03:00:56;;;;;;;14.53;10.83;;;-3.90;99.90;;;;;;5079186;28;20207;-75
2022/03/03 03:03:22;;;;;;;12.53;11.13;;;-3.80;99.90;;;;;;5084635;28;20222;-74
2022/03/03 03:05:48;;;;;;;15.37;11.17;;;-3.80;99.90;;;;;;5084105;28;20171;-76
2022/03/03 03:08:14;;;;;;;17.00;13.10;;;-3.90;99.90;;;;;;5089621;28;20548;-76
2022/03/03 03:10:40;;;;;;;15.53;11.80;;;-3.90;99.90;;;;;;5081519;28;20207;-75
2022/03/03 03:13:07;;;;;;;12.97;10.93;;;-4.00;99.90;;;;;;5085275;28;20195;-75
2022/03/03 03:15:34;;;;;;;15.30;11.80;;;-4.00;99.90;;;;;;5089000;28;20190;-76
2022/03/03 03:18:21;;;;;;;13.97;10.77;;;-4.00;99.90;;;;;;5090413;28;20183;-76
2022/03/03 03:20:50;;;;;;;13.73;11.30;;;-4.00;99.90;;;;;;5079507;28;20187;-76
2022/03/03 03:23:18;;;;;;;16.37;11.70;;;-4.10;99.90;;;;;;5085907;28;20190;-76
2022/03/03 03:25:45;;;;;;;15.53;11.10;;;-4.00;99.90;;;;;;5083350;28;20183;-75
2022/03/03 03:28:11;;;;;;;14.90;10.90;;;-3.90;99.90;;;;;;5089530;28;20183;-76
2022/03/03 03:30:37;;;;;;;13.77;10.47;;;-3.90;99.90;;;;;;5086114;28;20220;-75
2022/03/03 03:33:03;;;;;;;12.50;10.03;;;-3.90;99.90;;;;;;5087550;28;20199;-75
2022/03/03 03:35:29;;;;;;;13.63;11.57;;;-3.90;99.90;;;;;;5081365;28;20176;-75
2022/03/03 03:37:55;;;;;;;13.13;11.17;;;-3.90;99.90;;;;;;5088189;28;20206;-75
2022/03/03 03:40:21;;;;;;;14.07;10.93;;;-4.00;99.90;;;;;;5088733;28;20252;-75
2022/03/03 03:42:48;;;;;;;16.90;11.20;;;-4.00;99.90;;;;;;5090604;28;20194;-75
2022/03/03 03:45:13;;;;;;;13.10;10.60;;;-4.00;99.90;;;;;;5081856;28;20265;-75
2022/03/03 03:47:40;;;;;;;12.33;11.03;;;-4.10;99.90;;;;;;5088033;28;20293;-75
2022/03/03 03:50:08;;;;;;;14.03;10.90;;;-4.10;99.90;;;;;;5091519;28;20209;-76
2022/03/03 03:52:37;;;;;;;14.37;11.57;;;-4.10;99.90;;;;;;5092835;28;20245;-76
2022/03/03 03:55:04;;;;;;;14.03;11.60;;;-4.00;99.90;;;;;;5086662;28;20178;-76
2022/03/03 03:57:30;;;;;;;16.07;11.70;;;-4.10;99.90;;;;;;5081066;28;20722;-75
2022/03/03 03:59:56;;;;;;;14.30;11.07;;;-4.00;99.90;;;;;;5087573;28;20780;-76
2022/03/03 04:02:22;;;;;;;14.43;11.30;;;-4.00;99.90;;;;;;5092770;28;20199;-76
2022/03/03 04:04:47;;;;;;;12.13;10.53;;;-4.00;99.90;;;;;;5088851;28;20190;-76
2022/03/03 04:07:14;;;;;;;14.30;12.23;;;-4.00;99.90;;;;;;5085668;28;20198;-75
2022/03/03 04:09:39;;;;;;;17.33;12.87;;;-3.90;99.90;;;;;;5082888;28;20248;-75
2022/03/03 04:12:06;;;;;;;14.60;11.00;;;-4.10;99.90;;;;;;5092586;28;20207;-75
2022/03/03 04:14:32;;;;;;;15.60;11.70;;;-4.20;99.90;;;;;;5092435;28;20236;-76
2022/03/03 04:16:57;;;;;;;15.33;11.00;;;-4.30;99.90;;;;;;5088141;28;20174;-76
2022/03/03 04:19:23;;;;;;;13.53;10.53;;;-4.30;99.90;;;;;;5086991;28;20179;-76
2022/03/03 04:21:48;;;;;;;11.47;10.17;;;-4.30;99.90;;;;;;5093506;28;20209;-76
2022/03/03 04:24:15;;;;;;;15.73;12.17;;;-4.30;99.90;;;;;;5092903;28;20185;-75
2022/03/03 04:26:40;;;;;;;13.77;10.33;;;-4.30;99.90;;;;;;5087431;28;20662;-76
2022/03/03 04:29:06;;;;;;;20.53;11.90;;;-4.20;99.90;;;;;;5090079;28;20256;-76
2022/03/03 04:31:32;;;;;;;14.63;11.50;;;-4.30;99.90;;;;;;5089926;28;20295;-75
2022/03/03 04:33:57;;;;;;;16.10;11.37;;;-4.40;99.90;;;;;;5091132;28;20171;-76
2022/03/03 04:36:23;;;;;;;18.20;12.97;;;-4.30;99.90;;;;;;5086651;28;20184;-74
2022/03/03 04:38:50;;;;;;;13.20;10.70;;;-4.40;99.90;;;;;;5076203;28;20182;-73
2022/03/03 04:41:19;;;;;;;15.97;11.00;;;-4.30;99.90;;;;;;5081263;28;20657;-74
2022/03/03 04:43:45;;;;;;;14.80;10.67;;;-4.30;99.90;;;;;;5089820;28;20535;-73
2022/03/03 04:46:11;;;;;;;14.73;10.57;;;-4.30;99.90;;;;;;5082462;28;20190;-73
2022/03/03 04:48:37;;;;;;;14.73;11.90;;;-4.30;99.90;;;;;;5081444;28;20267;-73
2022/03/03 04:51:03;;;;;;;18.50;10.97;;;-4.30;99.90;;;;;;5082759;28;20207;-74
2022/03/03 04:53:29;;;;;;;13.50;11.47;;;-4.40;99.90;;;;;;5078997;28;20278;-73
2022/03/03 04:55:56;;;;;;;14.73;11.10;;;-4.40;99.90;;;;;;5077838;28;20179;-73
2022/03/03 04:58:22;;;;;;;14.87;11.07;;;-4.50;99.90;;;;;;5082760;28;20569;-74
2022/03/03 05:00:47;;;;;;;15.00;12.03;;;-4.60;99.90;;;;;;5086053;28;20181;-74
2022/03/03 05:03:13;;;;;;;29.17;22.67;;;-4.70;99.90;;;;;;5075985;28;20221;-73
2022/03/03 05:05:39;;;;;;;33.13;26.60;;;-4.80;99.90;;;;;;5075523;28;20187;-74
2022/03/03 05:08:05;;;;;;;27.23;24.03;;;-4.70;99.90;;;;;;5079474;28;20576;-74
2022/03/03 05:10:31;;;;;;;19.80;17.73;;;-4.70;99.90;;;;;;5083505;28;20193;-75
2022/03/03 05:12:57;;;;;;;21.33;16.07;;;-4.50;99.90;;;;;;5086006;28;20203;-74
2022/03/03 05:15:23;;;;;;;16.77;13.63;;;-4.50;99.90;;;;;;5076227;28;20616;-74
2022/03/03 05:17:49;;;;;;;15.67;13.20;;;-4.60;99.90;;;;;;5073701;28;20187;-74
2022/03/03 05:20:15;;;;;;;17.53;13.03;;;-4.70;99.90;;;;;;5077694;28;20611;-74
2022/03/03 05:22:41;;;;;;;18.33;12.83;;;-4.80;99.90;;;;;;5080210;28;20236;-74
2022/03/03 05:25:07;;;;;;;13.70;11.13;;;-4.80;99.90;;;;;;5076805;28;20203;-73
2022/03/03 05:27:33;;;;;;;17.17;12.03;;;-4.80;99.90;;;;;;5082565;28;20262;-74
2022/03/03 05:29:59;;;;;;;14.07;11.27;;;-4.80;99.90;;;;;;5086780;28;20274;-73
2022/03/03 05:32:25;;;;;;;16.67;11.70;;;-4.80;99.90;;;;;;5082368;28;20214;-74
2022/03/03 05:34:51;;;;;;;12.00;10.70;;;-4.80;99.90;;;;;;5076939;28;20216;-74
2022/03/03 05:37:23;;;;;;;17.20;11.40;;;-4.90;99.90;;;;;;5089357;28;20175;-73
2022/03/03 05:39:49;;;;;;;13.37;10.67;;;-4.90;99.90;;;;;;5085677;28;20218;-74
2022/03/03 05:42:15;;;;;;;13.23;11.07;;;-4.90;99.90;;;;;;5085244;28;20665;-74
2022/03/03 05:44:42;;;;;;;16.23;11.27;;;-4.90;99.90;;;;;;5093297;28;20511;-75
2022/03/03 05:47:07;;;;;;;16.30;11.30;;;-4.90;99.90;;;;;;5085900;28;20269;-76
2022/03/03 05:49:36;;;;;;;15.23;11.33;;;-4.90;99.90;;;;;;5083745;28;20297;-76
2022/03/03 05:52:01;;;;;;;13.93;11.40;;;-4.90;99.90;;;;;;5079065;28;20561;-76
2022/03/03 05:54:27;;;;;;;16.57;12.13;;;-4.90;99.90;;;;;;5092105;28;20209;-75
2022/03/03 05:56:54;;;;;;;15.20;11.13;;;-4.80;99.90;;;;;;5082195;28;20217;-75
2022/03/03 05:59:23;;;;;;;15.93;12.23;;;-4.80;99.90;;;;;;5079993;28;20623;-76
2022/03/03 06:01:49;;;;;;;13.37;11.57;;;-4.90;99.90;;;;;;5079786;28;20288;-76
2022/03/03 06:04:16;;;;;;;15.00;11.57;;;-4.90;99.90;;;;;;5077214;28;20194;-75
2022/03/03 06:07:05;;;;;;;16.90;12.20;;;-4.90;99.90;;;;;;5080325;28;20173;-76
2022/03/03 06:09:33;;;;;;;18.33;12.57;;;-4.90;99.90;;;;;;5082012;28;20195;-75
2022/03/03 06:12:11;;;;;;;14.23;11.83;;;-4.80;99.90;;;;;;5081224;28;20247;-75
2022/03/03 06:14:49;;;;;;;18.60;13.17;;;-4.70;99.90;;;;;;5091309;28;20183;-75
2022/03/03 06:17:19;;;;;;;18.80;14.23;;;-4.60;99.90;;;;;;5088150;28;20548;-74
2022/03/03 06:19:46;;;;;;;16.83;12.60;;;-4.50;99.90;;;;;;5072542;28;20650;-75
2022/03/03 06:22:12;;;;;;;16.93;12.63;;;-4.50;99.90;;;;;;5076128;28;20226;-75
2022/03/03 06:24:39;;;;;;;17.80;13.00;;;-4.30;99.90;;;;;;5080964;28;20548;-73
2022/03/03 06:27:05;;;;;;;17.60;11.90;;;-4.20;99.90;;;;;;5081065;28;20534;-75
2022/03/03 06:29:32;;;;;;;21.43;13.27;;;-4.10;99.90;;;;;;5083285;28;20197;-75
2022/03/03 06:31:58;;;;;;;14.23;11.63;;;-4.00;99.90;;;;;;5079335;28;20692;-74
2022/03/03 06:34:24;;;;;;;17.03;11.43;;;-3.80;99.90;;;;;;5080864;28;20304;-74
2022/03/03 06:36:51;;;;;;;13.37;11.10;;;-3.60;99.90;;;;;;5077967;28;20758;-74
2022/03/03 06:39:16;;;;;;;15.63;12.17;;;-3.50;99.90;;;;;;5070962;28;20645;-74
2022/03/03 06:41:42;;;;;;;16.63;11.90;;;-3.40;99.90;;;;;;5083879;28;20256;-73
2022/03/03 06:44:08;;;;;;;15.43;11.70;;;-3.30;99.90;;;;;;5083891;28;20229;-75
2022/03/03 06:46:34;;;;;;;16.87;11.57;;;-3.20;99.90;;;;;;5087232;28;20239;-77
2022/03/03 06:49:00;;;;;;;16.20;11.67;;;-3.10;99.90;;;;;;5088124;28;20186;-76
2022/03/03 06:51:28;;;;;;;20.20;12.80;;;-3.10;99.90;;;;;;5084784;28;20211;-73
2022/03/03 06:53:57;;;;;;;16.07;12.20;;;-3.00;99.90;;;;;;5088603;28;20244;-74
2022/03/03 06:56:25;;;;;;;17.53;11.50;;;-3.00;99.90;;;;;;5085089;28;20233;-74
2022/03/03 06:58:52;;;;;;;16.10;11.80;;;-2.90;99.90;;;;;;5090388;28;20186;-74
2022/03/03 07:01:22;;;;;;;16.97;13.13;;;-2.90;99.90;;;;;;5089609;28;20882;-74
2022/03/03 07:03:48;;;;;;;16.33;11.70;;;-2.90;99.90;;;;;;5085231;28;20213;-76
2022/03/03 07:06:15;;;;;;;17.63;13.10;;;-2.80;99.90;;;;;;5093622;28;20190;-77
2022/03/03 07:08:41;;;;;;;22.93;13.23;;;-2.60;99.90;;;;;;5089834;28;20555;-75
2022/03/03 07:11:07;;;;;;;17.20;12.43;;;-2.60;99.90;;;;;;5085549;28;20207;-76
2022/03/03 07:13:33;;;;;;;14.53;11.40;;;-2.50;99.90;;;;;;5095366;28;20564;-76
2022/03/03 07:16:17;;;;;;;17.33;12.07;;;-2.40;99.90;;;;;;5091923;28;20617;-75
2022/03/03 07:18:45;;;;;;;15.70;11.00;;;-2.40;99.90;;;;;;5091432;28;20267;-76
2022/03/03 07:21:14;;;;;;;14.70;11.43;;;-2.40;99.90;;;;;;5092849;28;20270;-80
2022/03/03 07:23:43;;;;;;;14.67;11.47;;;-2.30;99.90;;;;;;5091555;28;20190;-75
2022/03/03 07:26:13;;;;;;;15.60;11.73;;;-2.30;99.90;;;;;;5082077;28;20183;-74
2022/03/03 07:28:40;;;;;;;20.43;11.90;;;-2.30;99.90;;;;;;5084924;28;20269;-74
2022/03/03 07:31:08;;;;;;;16.83;10.90;;;-2.30;99.90;;;;;;5083726;28;20308;-77
2022/03/03 07:33:36;;;;;;;14.80;10.87;;;-2.20;99.90;;;;;;5091841;28;20194;-75
2022/03/03 07:36:03;;;;;;;14.57;12.33;;;-2.20;99.90;;;;;;5084054;28;20180;-75
2022/03/03 07:38:35;;;;;;;15.07;12.67;;;-2.10;99.90;;;;;;5089913;28;20718;-78
2022/03/03 07:41:02;;;;;;;18.13;10.63;;;-2.10;99.90;;;;;;5087211;28;20605;-78
2022/03/03 07:43:28;;;;;;;16.93;11.83;;;-2.10;99.90;;;;;;5093704;28;20637;-77
2022/03/03 07:45:54;;;;;;;14.10;11.67;;;-2.00;99.90;;;;;;5091020;28;20185;-76
2022/03/03 07:48:24;;;;;;;15.10;11.47;;;-2.00;99.90;;;;;;5089852;28;20235;-77
2022/03/03 07:50:50;;;;;;;20.90;13.67;;;-2.00;99.90;;;;;;5093639;28;20195;-77
2022/03/03 07:53:16;;;;;;;17.63;12.83;;;-2.00;99.90;;;;;;5083867;28;20207;-76
2022/03/03 07:55:43;;;;;;;19.47;13.07;;;-1.90;99.90;;;;;;5086674;28;20201;-76
2022/03/03 07:58:14;;;;;;;16.77;12.73;;;-1.80;99.90;;;;;;5080392;28;20176;-75
2022/03/03 08:00:46;;;;;;;22.93;11.90;;;-1.80;99.90;;;;;;5080909;28;20253;-76
2022/03/03 08:03:15;;;;;;;17.87;12.87;;;-1.60;99.90;;;;;;5076575;28;20250;-77
2022/03/03 08:05:44;;;;;;;17.27;11.73;;;-1.60;99.90;;;;;;5076450;28;20187;-77
2022/03/03 08:08:13;;;;;;;17.00;12.33;;;-1.60;99.90;;;;;;5085943;28;20179;-77
2022/03/03 08:10:44;;;;;;;20.50;14.20;;;-1.50;99.90;;;;;;5084003;28;20175;-76
2022/03/03 08:13:12;;;;;;;16.73;13.00;;;-1.40;99.90;;;;;;5091010;28;20277;-76
2022/03/03 08:15:38;;;;;;;17.40;12.17;;;-1.30;99.90;;;;;;5089086;28;20171;-77
2022/03/03 08:18:04;;;;;;;19.00;13.93;;;-1.20;99.90;;;;;;5087206;28;20336;-77
2022/03/03 08:20:33;;;;;;;16.30;12.77;;;-1.10;99.90;;;;;;5089474;28;20257;-78
2022/03/03 08:23:01;;;;;;;19.50;13.33;;;-1.00;99.90;;;;;;5081191;28;20195;-74
2022/03/03 08:25:27;;;;;;;17.80;13.40;;;-0.80;99.90;;;;;;5085466;28;20248;-76
2022/03/03 08:27:54;;;;;;;20.50;13.00;;;-0.70;99.90;;;;;;5079045;28;20175;-77
2022/03/03 08:30:21;;;;;;;18.30;14.00;;;-0.60;99.90;;;;;;5085016;28;20171;-75
2022/03/03 08:32:59;;;;;;;17.63;12.67;;;-0.50;99.90;;;;;;5081532;28;20228;-74
2022/03/03 08:35:31;;;;;;;21.83;13.00;;;-0.50;99.90;;;;;;5083299;28;20598;-75
2022/03/03 08:38:10;;;;;;;18.90;12.67;;;-0.40;99.90;;;;;;5082553;28;20171;-75
2022/03/03 08:40:36;;;;;;;20.30;13.93;;;-0.20;99.90;;;;;;5085099;28;20183;-75
2022/03/03 08:43:05;;;;;;;18.43;14.30;;;-0.10;99.90;;;;;;5086326;28;20195;-75
2022/03/03 08:45:33;;;;;;;17.53;13.07;;;-0.10;99.90;;;;;;5085367;28;20183;-75
2022/03/03 08:48:10;;;;;;;17.33;13.93;;;0.00;99.90;;;;;;5086887;28;20654;-75
2022/03/03 08:50:39;;;;;;;18.90;14.07;;;0.10;99.90;;;;;;5091808;28;20175;-74
2022/03/03 08:53:06;;;;;;;22.40;14.77;;;0.40;99.90;;;;;;5087708;28;20201;-74
2022/03/03 08:55:33;;;;;;;20.70;13.83;;;0.50;99.90;;;;;;5090246;28;20197;-75
2022/03/03 08:57:59;;;;;;;18.63;14.03;;;0.90;99.90;;;;;;5086420;28;20238;-72
2022/03/03 09:00:26;;;;;;;17.43;14.20;;;1.60;99.90;;;;;;5079471;28;20172;-72
2022/03/03 09:02:52;;;;;;;19.10;13.50;;;1.80;99.90;;;;;;5089927;28;20224;-73
2022/03/03 09:05:19;;;;;;;17.30;13.70;;;2.30;99.90;;;;;;5082168;28;20222;-73
2022/03/03 09:07:45;;;;;;;19.03;13.70;;;2.60;99.90;;;;;;5086502;28;20182;-71
2022/03/03 09:10:11;;;;;;;19.37;13.60;;;2.60;99.90;;;;;;5075466;28;20278;-72
2022/03/03 09:12:37;;;;;;;16.10;13.47;;;2.50;99.90;;;;;;5089532;28;20293;-71
2022/03/03 09:15:05;;;;;;;20.43;14.40;;;2.40;99.90;;;;;;5083964;28;20178;-70
2022/03/03 09:17:31;;;;;;;17.00;13.60;;;2.90;99.90;;;;;;5087857;28;20186;-71
2022/03/03 09:19:57;;;;;;;19.93;14.37;;;3.10;99.90;;;;;;5080282;28;20183;-73
2022/03/03 09:22:23;;;;;;;22.73;14.50;;;3.20;99.90;;;;;;5086124;28;20278;-71
2022/03/03 09:24:49;;;;;;;19.13;14.60;;;3.10;99.90;;;;;;5087600;28;20179;-75
2022/03/03 09:27:15;;;;;;;20.67;14.47;;;3.10;99.90;;;;;;5088239;28;20230;-74
2022/03/03 09:29:40;;;;;;;16.40;14.03;;;3.10;99.90;;;;;;5088475;28;20657;-75
2022/03/03 09:32:06;;;;;;;19.53;13.83;;;3.30;99.90;;;;;;5080512;28;20207;-72
2022/03/03 09:34:32;;;;;;;20.90;15.27;;;4.30;99.90;;;;;;5078790;28;20179;-73
2022/03/03 09:36:58;;;;;;;16.80;13.57;;;6.50;99.90;;;;;;5081101;28;20182;-77
2022/03/03 09:39:24;;;;;;;14.17;12.67;;;9.30;97.60;;;;;;5082693;28;20206;-74
2022/03/03 09:41:52;;;;;;;15.15;12.68;;;11.80;81.60;;;;;;5083256;28;20195;-75
2022/03/03 09:44:26;;;;;;;13.68;12.25;;;14.20;64.60;;;;;;5087298;28;20585;-78
2022/03/03 09:46:52;;;;;;;14.80;12.45;;;15.90;58.00;;;;;;5089127;28;20244;-75
2022/03/03 09:49:19;;;;;;;16.48;13.88;;;17.70;52.70;;;;;;5086100;28;20179;-79
2022/03/03 09:51:47;;;;;;;17.05;13.23;;;18.70;49.10;;;;;;5096128;28;20228;-79
2022/03/03 09:54:13;;;;;;;15.77;13.48;;;19.50;45.80;;;;;;5084047;28;20198;-75
2022/03/03 09:56:39;;;;;;;13.98;12.45;;;19.70;45.30;;;;;;5088308;28;20183;-76
2022/03/03 09:59:08;;;;;;;14.48;12.98;;;20.30;44.50;;;;;;5082314;28;20726;-76
2022/03/03 10:01:35;;;;;;;16.13;12.85;;;21.80;42.50;;;;;;5090912;28;20214;-79
2022/03/03 10:04:14;;;;;;;14.38;12.45;;;22.50;39.80;;;;;;5080573;28;20186;-76
2022/03/03 10:06:41;;;;;;;16.35;14.32;;;23.00;38.20;;;;;;5087562;28;20545;-74
2022/03/03 10:09:07;;;;;;;14.60;13.02;;;23.20;37.40;;;;;;5079571;28;20175;-75
2022/03/03 10:12:01;;;;;;;14.60;13.10;;;23.10;37.80;;;;;;5079604;28;20202;-75
2022/03/03 10:14:36;;;;;;;15.65;13.10;;;22.90;37.00;;;;;;5076315;28;20191;-75
2022/03/03 10:17:05;;;;;;;15.55;14.02;;;23.00;35.60;;;;;;5080764;28;20420;-76
2022/03/03 10:19:32;;;;;;;16.55;14.50;;;22.70;36.80;;;;;;5087573;28;20178;-76
2022/03/03 10:21:57;;;;;;;14.38;12.85;;;21.90;37.00;;;;;;5085430;28;20186;-75
2022/03/03 10:24:26;;;;;;;14.45;12.95;;;21.80;36.70;;;;;;5079377;28;20245;-76
2022/03/03 10:27:01;;;;;;;15.02;12.73;;;22.10;38.20;;;;;;5086049;28;20628;-76
2022/03/03 10:29:27;;;;;;;14.30;12.90;;;22.70;36.80;;;;;;5081659;28;20743;-76
2022/03/03 10:31:55;;;;;;;14.23;11.95;;;22.70;37.20;;;;;;5084398;28;20202;-75
2022/03/03 10:34:25;;;;;;;13.10;11.88;;;22.60;37.60;;;;;;5081400;28;20534;-78
2022/03/03 10:37:04;;;;;;;14.70;12.32;;;23.90;34.70;;;;;;5074344;28;20187;-75
2022/03/03 10:39:47;;;;;;;14.02;12.63;;;24.40;34.10;;;;;;5076064;28;20186;-75
2022/03/03 10:42:14;;;;;;;13.07;11.70;;;24.20;35.10;;;;;;5074913;28;20206;-77
2022/03/03 10:44:41;;;;;;;13.00;11.70;;;24.40;35.50;;;;;;5087970;28;20666;-77
2022/03/03 10:47:12;;;;;;;13.23;11.82;;;25.10;33.50;;;;;;5080225;28;20191;-76
2022/03/03 10:49:43;;;;;;;13.48;12.02;;;25.70;32.50;;;;;;5081184;28;20179;-77
2022/03/03 10:52:24;;;;;;;14.30;12.73;;;24.50;32.90;;;;;;5077438;28;20210;-77
2022/03/03 10:55:06;;;;;;;14.13;12.63;;;23.70;35.00;;;;;;5085407;28;20167;-77
2022/03/03 10:57:35;;;;;;;13.50;12.13;;;23.90;35.70;;;;;;5078809;28;20178;-77
2022/03/03 11:00:06;;;;;;;13.68;12.38;;;23.80;34.30;;;;;;5089456;28;20176;-76
2022/03/03 11:02:34;;;;;;;14.15;12.40;;;25.00;33.90;;;;;;5080037;28;20645;-76
2022/03/03 11:05:00;;;;;;;13.50;11.75;;;25.40;33.70;;;;;;5075513;28;20240;-74
2022/03/03 11:07:26;;;;;;;13.35;12.05;;;26.60;31.90;;;;;;5085706;28;20646;-75
2022/03/03 11:09:53;;;;;;;14.18;11.93;;;26.50;30.80;;;;;;5085138;28;20264;-75
2022/03/03 11:12:19;;;;;;;13.82;12.50;;;25.60;32.00;;;;;;5077198;28;20964;-76
2022/03/03 11:14:46;;;;;;;12.45;11.15;;;25.20;32.80;;;;;;5082767;28;20200;-75
2022/03/03 11:17:12;;;;;;;14.38;11.50;;;25.40;32.40;;;;;;5085689;28;20553;-75
2022/03/03 11:19:38;;;;;;;13.13;11.82;;;25.90;31.70;;;;;;5087727;28;20171;-76
2022/03/03 11:22:04;;;;;;;13.38;12.05;;;26.00;32.00;;;;;;5081796;28;20247;-76
2022/03/03 11:24:42;;;;;;;13.48;12.07;;;25.90;32.00;;;;;;5086433;28;20277;-76
2022/03/03 11:27:08;;;;;;;12.40;11.07;;;26.70;31.50;;;;;;5079828;28;20181;-76
2022/03/03 11:29:38;;;;;;;12.88;11.68;;;27.20;31.20;;;;;;5086478;28;20649;-76
2022/03/03 11:32:05;;;;;;;13.30;12.02;;;27.60;30.20;;;;;;5083957;28;20218;-76
2022/03/03 11:34:31;;;;;;;11.45;10.35;;;27.10;30.80;;;;;;5077176;28;20186;-75
2022/03/03 11:37:09;;;;;;;13.65;12.35;;;28.20;29.70;;;;;;5078821;28;20187;-75
2022/03/03 11:39:49;;;;;;;13.38;10.55;;;28.80;28.50;;;;;;5077675;28;20694;-76
2022/03/03 11:42:24;;;;;;;14.25;11.88;;;27.30;30.30;;;;;;5081263;28;20209;-75
2022/03/03 11:44:52;;;;;;;12.05;10.85;;;26.50;29.50;;;;;;5081722;28;20641;-75
2022/03/03 11:47:22;;;;;;;12.65;11.32;;;26.00;30.60;;;;;;5084770;28;20183;-75
2022/03/03 11:50:16;;;;;;;12.23;10.65;;;27.10;29.50;;;;;;5082965;28;20182;-75
2022/03/03 11:52:44;;;;;;;11.75;10.57;;;27.90;28.80;;;;;;5086223;28;20209;-76
2022/03/03 11:55:28;;;;;;;13.57;11.13;;;29.20;28.30;;;;;;5078871;28;20179;-76
2022/03/03 11:58:05;;;;;;;12.85;10.50;;;28.70;28.20;;;;;;5077971;28;20193;-76
2022/03/03 12:00:33;;;;;;;11.73;10.52;;;28.20;28.10;;;;;;5084989;28;20810;-76
2022/03/03 12:03:00;;;;;;;11.57;10.35;;;28.10;28.40;;;;;;5086024;28;20225;-76
2022/03/03 12:05:30;;;;;;;11.48;10.25;;;28.10;28.40;;;;;;5095244;28;20181;-75
2022/03/03 12:07:57;;;;;;;10.68;8.88;;;27.90;27.70;;;;;;5092113;28;20181;-74
2022/03/03 12:10:22;;;;;;;9.40;8.57;;;27.70;27.50;;;;;;5086363;28;20187;-75
2022/03/03 12:12:48;;;;;;;10.32;9.43;;;27.10;27.50;;;;;;5092838;28;20217;-78
2022/03/03 12:15:14;;;;;;;10.95;9.68;;;27.90;27.50;;;;;;5086024;28;20175;-75
2022/03/03 12:17:42;;;;;;;10.18;9.27;;;27.30;27.30;;;;;;5082185;28;21583;-76
2022/03/03 12:20:59;;;;;;;8.82;8.00;;;27.80;27.60;;;;;;5081990;28;20190;-74
2022/03/03 12:23:29;;;;;;;8.98;8.18;;;28.60;26.30;;;;;;5090202;28;20206;-77
2022/03/03 12:26:00;;;;;;;9.50;8.70;;;28.40;26.70;;;;;;5081503;28;20558;-75
2022/03/03 12:28:48;;;;;;;8.75;7.95;;;29.60;26.20;;;;;;5090239;28;20186;-75
2022/03/03 12:31:26;;;;;;;8.63;7.93;;;29.40;26.20;;;;;;5079780;28;20209;-76